sensor_id;sensor_type;location;lat;lon;timestamp;pressure;altitude;pressure_sealevel;temperature;humidity
63281;BME280;49406;51.044;3.766;2023-04-08T00:02:15;102392.77;;;8.85;100.00
63281;BME280;49406;51.044;3.766;2023-04-08T00:04:48;102392.73;;;8.91;100.00
63281;BME280;49406;51.044;3.766;2023-04-08T00:07:20;102390.80;;;8.91;100.00
63281;BME280;49406;51.044;3.766;2023-04-08T00:09:52;102391.13;;;8.87;100.00
63281;BME280;49406;51.044;3.766;2023-04-08T00:12:25;102394.34;;;8.80;100.00
63281;BME280;49406;51.044;3.766;2023-04-08T00:14:57;102394.55;;;8.76;100.00
63281;BME280;49406;51.044;3.766;2023-04-08T00:17:30;102390.09;;;8.73;100.00
63281;BME280;49406;51.044;3.766;2023-04-08T00:20:03;102389.11;;;8.71;100.00
63281;BME280;49406;51.044;3.766;2023-04-08T00:22:35;102387.77;;;8.72;100.00
63281;BME280;49406;51.044;3.766;2023-04-08T00:25:09;102390.71;;;8.80;100.00
63281;BME280;49406;51.044;3.766;2023-04-08T00:27:41;102389.09;;;8.84;100.00
63281;BME280;49406;51.044;3.766;2023-04-08T00:30:13;102386.95;;;8.83;100.00
63281;BME280;49406;51.044;3.766;2023-04-08T00:32:46;102387.89;;;8.80;100.00
63281;BME280;49406;51.044;3.766;2023-04-08T00:35:18;102387.58;;;8.76;100.00
63281;BME280;49406;51.044;3.766;2023-04-08T00:37:51;102385.55;;;8.73;100.00
63281;BME280;49406;51.044;3.766;2023-04-08T00:40:23;102387.80;;;8.73;100.00
63281;BME280;49406;51.044;3.766;2023-04-08T00:42:57;102389.95;;;8.79;100.00
63281;BME280;49406;51.044;3.766;2023-04-08T00:45:29;102394.25;;;8.86;100.00
63281;BME280;49406;51.044;3.766;2023-04-08T00:48:02;102391.87;;;8.88;100.00
63281;BME280;49406;51.044;3.766;2023-04-08T00:50:34;102390.80;;;8.87;100.00
63281;BME280;49406;51.044;3.766;2023-04-08T00:53:07;102392.52;;;8.82;100.00
63281;BME280;49406;51.044;3.766;2023-04-08T00:55:39;102392.23;;;8.79;100.00
63281;BME280;49406;51.044;3.766;2023-04-08T00:58:12;102391.62;;;8.77;100.00
63281;BME280;49406;51.044;3.766;2023-04-08T01:00:48;102393.80;;;8.75;100.00
63281;BME280;49406;51.044;3.766;2023-04-08T01:03:29;102388.65;;;8.72;100.00
63281;BME280;49406;51.044;3.766;2023-04-08T01:06:09;102389.14;;;8.81;100.00
63281;BME280;49406;51.044;3.766;2023-04-08T01:08:45;102393.02;;;8.86;100.00
63281;BME280;49406;51.044;3.766;2023-04-08T01:11:19;102391.38;;;8.84;100.00
63281;BME280;49406;51.044;3.766;2023-04-08T01:13:54;102394.73;;;8.81;100.00
63281;BME280;49406;51.044;3.766;2023-04-08T01:16:27;102394.05;;;8.77;100.00
63281;BME280;49406;51.044;3.766;2023-04-08T01:19:01;102389.27;;;8.75;100.00
63281;BME280;49406;51.044;3.766;2023-04-08T01:21:35;102394.97;;;8.73;100.00
63281;BME280;49406;51.044;3.766;2023-04-08T01:24:12;102393.09;;;8.70;100.00
63281;BME280;49406;51.044;3.766;2023-04-08T01:26:49;102394.13;;;8.70;100.00
63281;BME280;49406;51.044;3.766;2023-04-08T01:29:22;102393.95;;;8.83;100.00
63281;BME280;49406;51.044;3.766;2023-04-08T01:31:55;102391.59;;;8.85;100.00
63281;BME280;49406;51.044;3.766;2023-04-08T01:34:29;102391.95;;;8.86;100.00
63281;BME280;49406;51.044;3.766;2023-04-08T01:37:04;102395.22;;;8.84;100.00
63281;BME280;49406;51.044;3.766;2023-04-08T01:39:39;102393.13;;;8.80;100.00
63281;BME280;49406;51.044;3.766;2023-04-08T01:42:13;102399.29;;;8.77;100.00
63281;BME280;49406;51.044;3.766;2023-04-08T01:44:46;102403.53;;;8.74;100.00
63281;BME280;49406;51.044;3.766;2023-04-08T01:47:20;102402.16;;;8.71;100.00
63281;BME280;49406;51.044;3.766;2023-04-08T01:49:53;102404.37;;;8.69;100.00
63281;BME280;49406;51.044;3.766;2023-04-08T01:52:26;102404.27;;;8.71;100.00
63281;BME280;49406;51.044;3.766;2023-04-08T01:55:00;102402.96;;;8.82;100.00
63281;BME280;49406;51.044;3.766;2023-04-08T01:57:35;102402.64;;;8.83;100.00
63281;BME280;49406;51.044;3.766;2023-04-08T02:00:11;102405.67;;;8.80;100.00
63281;BME280;49406;51.044;3.766;2023-04-08T02:02:45;102406.75;;;8.76;100.00
63281;BME280;49406;51.044;3.766;2023-04-08T02:05:18;102407.79;;;8.76;100.00
63281;BME280;49406;51.044;3.766;2023-04-08T02:07:51;102405.64;;;8.74;100.00
63281;BME280;49406;51.044;3.766;2023-04-08T02:10:23;102409.50;;;8.71;100.00
63281;BME280;49406;51.044;3.766;2023-04-08T02:12:56;102410.29;;;8.73;100.00
63281;BME280;49406;51.044;3.766;2023-04-08T02:15:29;102409.65;;;8.83;100.00
63281;BME280;49406;51.044;3.766;2023-04-08T02:18:10;102412.67;;;8.85;100.00
63281;BME280;49406;51.044;3.766;2023-04-08T02:20:49;102407.02;;;8.83;100.00
63281;BME280;49406;51.044;3.766;2023-04-08T02:23:27;102404.15;;;8.76;100.00
63281;BME280;49406;51.044;3.766;2023-04-08T02:26:02;102405.76;;;8.73;100.00
63281;BME280;49406;51.044;3.766;2023-04-08T02:28:36;102405.77;;;8.69;100.00
63281;BME280;49406;51.044;3.766;2023-04-08T02:31:10;102412.79;;;8.66;100.00
63281;BME280;49406;51.044;3.766;2023-04-08T02:33:44;102417.73;;;8.63;100.00
63281;BME280;49406;51.044;3.766;2023-04-08T02:36:17;102417.98;;;8.60;100.00
63281;BME280;49406;51.044;3.766;2023-04-08T02:38:50;102416.64;;;8.58;100.00
63281;BME280;49406;51.044;3.766;2023-04-08T02:41:22;102419.66;;;8.59;100.00
63281;BME280;49406;51.044;3.766;2023-04-08T02:43:55;102423.69;;;8.68;100.00
63281;BME280;49406;51.044;3.766;2023-04-08T02:46:27;102425.09;;;8.68;100.00
63281;BME280;49406;51.044;3.766;2023-04-08T02:49:00;102423.52;;;8.69;100.00
63281;BME280;49406;51.044;3.766;2023-04-08T02:51:32;102423.05;;;8.65;100.00
63281;BME280;49406;51.044;3.766;2023-04-08T02:54:04;102427.69;;;8.63;100.00
63281;BME280;49406;51.044;3.766;2023-04-08T02:56:37;102429.29;;;8.64;100.00
63281;BME280;49406;51.044;3.766;2023-04-08T02:59:09;102430.30;;;8.68;100.00
63281;BME280;49406;51.044;3.766;2023-04-08T03:01:42;102432.05;;;8.63;100.00
63281;BME280;49406;51.044;3.766;2023-04-08T03:04:14;102432.02;;;8.63;100.00
63281;BME280;49406;51.044;3.766;2023-04-08T03:06:47;102436.71;;;8.71;100.00
63281;BME280;49406;51.044;3.766;2023-04-08T03:09:19;102437.38;;;8.74;100.00
63281;BME280;49406;51.044;3.766;2023-04-08T03:11:52;102442.98;;;8.74;100.00
63281;BME280;49406;51.044;3.766;2023-04-08T03:14:25;102445.06;;;8.74;100.00
63281;BME280;49406;51.044;3.766;2023-04-08T03:16:58;102443.88;;;8.72;100.00
63281;BME280;49406;51.044;3.766;2023-04-08T03:19:30;102444.89;;;8.70;100.00
63281;BME280;49406;51.044;3.766;2023-04-08T03:22:02;102446.63;;;8.70;100.00
63281;BME280;49406;51.044;3.766;2023-04-08T03:24:35;102449.52;;;8.69;100.00
63281;BME280;49406;51.044;3.766;2023-04-08T03:27:07;102448.73;;;8.67;100.00
63281;BME280;49406;51.044;3.766;2023-04-08T03:29:40;102447.42;;;8.64;100.00
63281;BME280;49406;51.044;3.766;2023-04-08T03:32:12;102446.95;;;8.65;100.00
63281;BME280;49406;51.044;3.766;2023-04-08T03:34:45;102455.59;;;8.76;100.00
63281;BME280;49406;51.044;3.766;2023-04-08T03:37:17;102450.92;;;8.77;100.00
63281;BME280;49406;51.044;3.766;2023-04-08T03:39:50;102452.25;;;8.75;100.00
63281;BME280;49406;51.044;3.766;2023-04-08T03:42:22;102450.48;;;8.71;100.00
63281;BME280;49406;51.044;3.766;2023-04-08T03:44:54;102451.63;;;8.69;100.00
63281;BME280;49406;51.044;3.766;2023-04-08T03:47:28;102457.38;;;8.69;100.00
63281;BME280;49406;51.044;3.766;2023-04-08T03:50:00;102455.35;;;8.66;100.00
63281;BME280;49406;51.044;3.766;2023-04-08T03:52:32;102457.07;;;8.66;100.00
63281;BME280;49406;51.044;3.766;2023-04-08T03:55:06;102456.12;;;8.64;100.00
63281;BME280;49406;51.044;3.766;2023-04-08T03:57:38;102456.88;;;8.61;100.00
63281;BME280;49406;51.044;3.766;2023-04-08T04:00:13;102455.19;;;8.66;100.00
63281;BME280;49406;51.044;3.766;2023-04-08T04:02:46;102455.15;;;8.74;100.00
63281;BME280;49406;51.044;3.766;2023-04-08T04:05:18;102455.91;;;8.76;100.00
63281;BME280;49406;51.044;3.766;2023-04-08T04:07:51;102452.23;;;8.75;100.00
63281;BME280;49406;51.044;3.766;2023-04-08T04:10:23;102450.83;;;8.71;100.00
63281;BME280;49406;51.044;3.766;2023-04-08T04:12:56;102449.14;;;8.68;100.00
63281;BME280;49406;51.044;3.766;2023-04-08T04:15:28;102446.27;;;8.66;100.00
63281;BME280;49406;51.044;3.766;2023-04-08T04:18:00;102447.89;;;8.63;100.00
63281;BME280;49406;51.044;3.766;2023-04-08T04:20:33;102441.58;;;8.62;100.00
63281;BME280;49406;51.044;3.766;2023-04-08T04:23:05;102445.39;;;8.70;100.00
63281;BME280;49406;51.044;3.766;2023-04-08T04:25:40;102440.52;;;8.70;100.00
63281;BME280;49406;51.044;3.766;2023-04-08T04:28:13;102447.13;;;8.70;100.00
63281;BME280;49406;51.044;3.766;2023-04-08T04:30:46;102446.34;;;8.67;100.00
63281;BME280;49406;51.044;3.766;2023-04-08T04:33:18;102450.98;;;8.66;100.00
63281;BME280;49406;51.044;3.766;2023-04-08T04:35:51;102452.69;;;8.65;100.00
63281;BME280;49406;51.044;3.766;2023-04-08T04:38:23;102456.21;;;8.62;100.00
63281;BME280;49406;51.044;3.766;2023-04-08T04:40:56;102455.77;;;8.63;100.00
63281;BME280;49406;51.044;3.766;2023-04-08T04:43:29;102457.09;;;8.70;100.00
63281;BME280;49406;51.044;3.766;2023-04-08T04:46:02;102456.67;;;8.69;100.00
63281;BME280;49406;51.044;3.766;2023-04-08T04:48:37;102458.02;;;8.67;100.00
63281;BME280;49406;51.044;3.766;2023-04-08T04:51:10;102456.93;;;8.62;100.00
63281;BME280;49406;51.044;3.766;2023-04-08T04:53:42;102460.16;;;8.60;100.00
63281;BME280;49406;51.044;3.766;2023-04-08T04:56:14;102463.20;;;8.58;100.00
63281;BME280;49406;51.044;3.766;2023-04-08T04:58:47;102463.63;;;8.56;100.00
63281;BME280;49406;51.044;3.766;2023-04-08T05:01:19;102465.50;;;8.55;100.00
63281;BME280;49406;51.044;3.766;2023-04-08T05:03:52;102467.48;;;8.60;100.00
63281;BME280;49406;51.044;3.766;2023-04-08T05:06:24;102466.52;;;8.66;100.00
63281;BME280;49406;51.044;3.766;2023-04-08T05:08:57;102473.83;;;8.66;100.00
63281;BME280;49406;51.044;3.766;2023-04-08T05:11:30;102468.59;;;8.66;100.00
63281;BME280;49406;51.044;3.766;2023-04-08T05:14:02;102476.63;;;8.62;100.00
63281;BME280;49406;51.044;3.766;2023-04-08T05:16:35;102473.92;;;8.60;100.00
63281;BME280;49406;51.044;3.766;2023-04-08T05:19:07;102478.00;;;8.57;100.00
63281;BME280;49406;51.044;3.766;2023-04-08T05:21:40;102481.76;;;8.56;100.00
63281;BME280;49406;51.044;3.766;2023-04-08T05:24:12;102486.35;;;8.54;100.00
63281;BME280;49406;51.044;3.766;2023-04-08T05:26:44;102488.00;;;8.55;100.00
63281;BME280;49406;51.044;3.766;2023-04-08T05:29:18;102492.39;;;8.64;100.00
63281;BME280;49406;51.044;3.766;2023-04-08T05:31:52;102495.61;;;8.66;100.00
63281;BME280;49406;51.044;3.766;2023-04-08T05:34:24;102498.73;;;8.66;100.00
63281;BME280;49406;51.044;3.766;2023-04-08T05:36:57;102500.34;;;8.62;100.00
63281;BME280;49406;51.044;3.766;2023-04-08T05:39:29;102500.67;;;8.62;100.00
63281;BME280;49406;51.044;3.766;2023-04-08T05:42:02;102503.66;;;8.62;100.00
63281;BME280;49406;51.044;3.766;2023-04-08T05:44:34;102507.84;;;8.62;100.00
63281;BME280;49406;51.044;3.766;2023-04-08T05:47:07;102512.16;;;8.61;100.00
63281;BME280;49406;51.044;3.766;2023-04-08T05:49:39;102516.95;;;8.63;100.00
63281;BME280;49406;51.044;3.766;2023-04-08T05:52:12;102523.20;;;8.75;100.00
63281;BME280;49406;51.044;3.766;2023-04-08T05:54:44;102523.86;;;8.78;100.00
63281;BME280;49406;51.044;3.766;2023-04-08T05:57:17;102525.14;;;8.80;100.00
63281;BME280;49406;51.044;3.766;2023-04-08T05:59:49;102526.77;;;8.77;100.00
63281;BME280;49406;51.044;3.766;2023-04-08T06:02:22;102527.27;;;8.76;100.00
63281;BME280;49406;51.044;3.766;2023-04-08T06:04:54;102530.07;;;8.77;100.00
63281;BME280;49406;51.044;3.766;2023-04-08T06:07:26;102533.35;;;8.76;100.00
63281;BME280;49406;51.044;3.766;2023-04-08T06:09:59;102533.16;;;8.75;100.00
63281;BME280;49406;51.044;3.766;2023-04-08T06:12:35;102535.36;;;8.78;100.00
63281;BME280;49406;51.044;3.766;2023-04-08T06:15:08;102539.00;;;8.90;100.00
63281;BME280;49406;51.044;3.766;2023-04-08T06:17:41;102539.13;;;8.93;100.00
63281;BME280;49406;51.044;3.766;2023-04-08T06:20:13;102545.03;;;8.92;100.00
63281;BME280;49406;51.044;3.766;2023-04-08T06:22:46;102544.73;;;8.90;100.00
63281;BME280;49406;51.044;3.766;2023-04-08T06:25:18;102548.36;;;8.89;100.00
63281;BME280;49406;51.044;3.766;2023-04-08T06:27:51;102552.14;;;8.91;100.00
63281;BME280;49406;51.044;3.766;2023-04-08T06:30:23;102552.20;;;8.92;100.00
63281;BME280;49406;51.044;3.766;2023-04-08T06:32:56;102556.13;;;8.95;100.00
63281;BME280;49406;51.044;3.766;2023-04-08T06:35:28;102556.85;;;8.99;100.00
63281;BME280;49406;51.044;3.766;2023-04-08T06:38:00;102559.16;;;9.13;100.00
63281;BME280;49406;51.044;3.766;2023-04-08T06:40:33;102559.88;;;9.18;100.00
63281;BME280;49406;51.044;3.766;2023-04-08T06:43:05;102561.45;;;9.22;100.00
63281;BME280;49406;51.044;3.766;2023-04-08T06:45:38;102567.38;;;9.22;100.00
63281;BME280;49406;51.044;3.766;2023-04-08T06:48:11;102566.25;;;9.24;100.00
63281;BME280;49406;51.044;3.766;2023-04-08T06:50:43;102569.88;;;9.27;100.00
63281;BME280;49406;51.044;3.766;2023-04-08T06:53:16;102569.57;;;9.28;100.00
63281;BME280;49406;51.044;3.766;2023-04-08T06:55:48;102571.86;;;9.29;100.00
63281;BME280;49406;51.044;3.766;2023-04-08T06:58:20;102571.69;;;9.29;100.00
63281;BME280;49406;51.044;3.766;2023-04-08T07:00:54;102574.94;;;9.31;100.00
63281;BME280;49406;51.044;3.766;2023-04-08T07:03:26;102580.73;;;9.41;100.00
63281;BME280;49406;51.044;3.766;2023-04-08T07:05:59;102582.27;;;9.53;100.00
63281;BME280;49406;51.044;3.766;2023-04-08T07:08:31;102584.59;;;9.59;100.00
63281;BME280;49406;51.044;3.766;2023-04-08T07:11:04;102587.16;;;9.61;100.00
63281;BME280;49406;51.044;3.766;2023-04-08T07:13:36;102589.57;;;9.61;100.00
63281;BME280;49406;51.044;3.766;2023-04-08T07:16:09;102591.58;;;9.63;100.00
63281;BME280;49406;51.044;3.766;2023-04-08T07:18:41;102593.45;;;9.66;100.00
63281;BME280;49406;51.044;3.766;2023-04-08T07:21:14;102595.90;;;9.71;100.00
63281;BME280;49406;51.044;3.766;2023-04-08T07:23:48;102599.13;;;9.73;100.00
63281;BME280;49406;51.044;3.766;2023-04-08T07:26:21;102596.36;;;9.74;100.00
63281;BME280;49406;51.044;3.766;2023-04-08T07:28:54;102602.66;;;9.74;100.00
63281;BME280;49406;51.044;3.766;2023-04-08T07:31:26;102599.69;;;9.78;100.00
63281;BME280;49406;51.044;3.766;2023-04-08T07:33:59;102599.42;;;9.89;100.00
63281;BME280;49406;51.044;3.766;2023-04-08T07:36:31;102601.33;;;9.93;100.00
63281;BME280;49406;51.044;3.766;2023-04-08T07:39:03;102603.52;;;10.00;100.00
63281;BME280;49406;51.044;3.766;2023-04-08T07:41:36;102608.17;;;10.08;100.00
63281;BME280;49406;51.044;3.766;2023-04-08T07:44:08;102605.32;;;10.20;100.00
63281;BME280;49406;51.044;3.766;2023-04-08T07:46:41;102609.42;;;10.45;100.00
63281;BME280;49406;51.044;3.766;2023-04-08T07:49:13;102606.70;;;11.01;100.00
63281;BME280;49406;51.044;3.766;2023-04-08T07:51:46;102609.22;;;11.71;100.00
63281;BME280;49406;51.044;3.766;2023-04-08T07:54:18;102613.35;;;12.25;99.13
63281;BME280;49406;51.044;3.766;2023-04-08T07:56:50;102608.11;;;12.56;96.95
63281;BME280;49406;51.044;3.766;2023-04-08T07:59:23;102612.60;;;12.66;92.64
63281;BME280;49406;51.044;3.766;2023-04-08T08:01:55;102612.17;;;12.63;92.55
63281;BME280;49406;51.044;3.766;2023-04-08T08:04:28;102610.59;;;12.63;92.68
63281;BME280;49406;51.044;3.766;2023-04-08T08:07:00;102613.55;;;12.56;92.70
63281;BME280;49406;51.044;3.766;2023-04-08T08:09:33;102616.38;;;12.57;93.18
63281;BME280;49406;51.044;3.766;2023-04-08T08:12:05;102616.08;;;12.59;91.68
63281;BME280;49406;51.044;3.766;2023-04-08T08:14:37;102617.37;;;12.55;92.30
63281;BME280;49406;51.044;3.766;2023-04-08T08:17:10;102621.51;;;12.77;91.46
63281;BME280;49406;51.044;3.766;2023-04-08T08:19:43;102625.21;;;12.98;90.45
63281;BME280;49406;51.044;3.766;2023-04-08T08:22:16;102630.23;;;13.14;88.09
63281;BME280;49406;51.044;3.766;2023-04-08T08:24:48;102632.98;;;13.24;86.27
63281;BME280;49406;51.044;3.766;2023-04-08T08:27:21;102638.27;;;13.18;86.30
63281;BME280;49406;51.044;3.766;2023-04-08T08:29:53;102638.91;;;13.23;85.97
63281;BME280;49406;51.044;3.766;2023-04-08T08:32:25;102643.92;;;13.26;87.65
63281;BME280;49406;51.044;3.766;2023-04-08T08:34:58;102647.80;;;13.21;87.10
63281;BME280;49406;51.044;3.766;2023-04-08T08:37:30;102649.92;;;13.15;87.40
63281;BME280;49406;51.044;3.766;2023-04-08T08:40:03;102649.33;;;13.06;86.75
63281;BME280;49406;51.044;3.766;2023-04-08T08:42:36;102651.11;;;12.94;87.82
63281;BME280;49406;51.044;3.766;2023-04-08T08:45:10;102648.43;;;12.80;87.81
63281;BME280;49406;51.044;3.766;2023-04-08T08:47:42;102649.38;;;12.64;88.88
63281;BME280;49406;51.044;3.766;2023-04-08T08:50:15;102651.23;;;12.55;90.59
63281;BME280;49406;51.044;3.766;2023-04-08T08:52:51;102650.45;;;12.64;91.04
63281;BME280;49406;51.044;3.766;2023-04-08T08:55:24;102654.13;;;12.70;90.04
63281;BME280;49406;51.044;3.766;2023-04-08T08:57:56;102650.08;;;12.63;90.75
63281;BME280;49406;51.044;3.766;2023-04-08T09:00:32;102652.89;;;12.63;90.81
63281;BME280;49406;51.044;3.766;2023-04-08T09:03:19;102651.71;;;12.59;91.13
63281;BME280;49406;51.044;3.766;2023-04-08T09:05:53;102652.23;;;12.59;91.11
63281;BME280;49406;51.044;3.766;2023-04-08T09:08:29;102654.30;;;12.58;91.47
63281;BME280;49406;51.044;3.766;2023-04-08T09:11:13;102655.52;;;12.63;91.88
63281;BME280;49406;51.044;3.766;2023-04-08T09:13:46;102654.86;;;12.77;92.00
63281;BME280;49406;51.044;3.766;2023-04-08T09:16:19;102657.19;;;12.85;90.51
63281;BME280;49406;51.044;3.766;2023-04-08T09:18:53;102657.88;;;12.85;90.43
63281;BME280;49406;51.044;3.766;2023-04-08T09:21:26;102660.66;;;12.84;90.00
63281;BME280;49406;51.044;3.766;2023-04-08T09:23:59;102665.27;;;12.79;89.86
63281;BME280;49406;51.044;3.766;2023-04-08T09:26:31;102663.70;;;12.73;90.18
63281;BME280;49406;51.044;3.766;2023-04-08T09:29:06;102666.56;;;12.70;90.28
63281;BME280;49406;51.044;3.766;2023-04-08T09:31:39;102662.41;;;12.65;89.75
63281;BME280;49406;51.044;3.766;2023-04-08T09:34:13;102661.49;;;12.63;89.44
63281;BME280;49406;51.044;3.766;2023-04-08T09:36:46;102661.08;;;12.67;90.19
63281;BME280;49406;51.044;3.766;2023-04-08T09:39:20;102661.31;;;12.76;89.82
63281;BME280;49406;51.044;3.766;2023-04-08T09:41:53;102663.77;;;12.81;89.94
63281;BME280;49406;51.044;3.766;2023-04-08T09:44:31;102666.63;;;12.72;90.25
63281;BME280;49406;51.044;3.766;2023-04-08T09:47:11;102666.61;;;12.59;91.24
63281;BME280;49406;51.044;3.766;2023-04-08T09:49:54;102666.49;;;12.55;92.25
63281;BME280;49406;51.044;3.766;2023-04-08T09:52:32;102669.56;;;12.58;91.62
63281;BME280;49406;51.044;3.766;2023-04-08T09:55:08;102670.73;;;12.50;92.01
63281;BME280;49406;51.044;3.766;2023-04-08T09:57:43;102670.31;;;12.35;92.48
63281;BME280;49406;51.044;3.766;2023-04-08T10:00:17;102671.39;;;12.36;92.32
63281;BME280;49406;51.044;3.766;2023-04-08T10:02:55;102670.27;;;12.45;92.38
63281;BME280;49406;51.044;3.766;2023-04-08T10:05:32;102671.58;;;12.55;92.35
63281;BME280;49406;51.044;3.766;2023-04-08T10:08:08;102671.45;;;12.62;92.90
63281;BME280;49406;51.044;3.766;2023-04-08T10:10:42;102668.64;;;12.68;93.42
63281;BME280;49406;51.044;3.766;2023-04-08T10:13:15;102669.81;;;12.84;92.79
63281;BME280;49406;51.044;3.766;2023-04-08T10:15:48;102670.27;;;12.95;90.79
63281;BME280;49406;51.044;3.766;2023-04-08T10:18:34;102671.20;;;13.04;90.99
63281;BME280;49406;51.044;3.766;2023-04-08T10:21:30;102676.16;;;12.92;89.48
63281;BME280;49406;51.044;3.766;2023-04-08T10:24:06;102676.23;;;12.76;89.35
63281;BME280;49406;51.044;3.766;2023-04-08T10:26:40;102678.63;;;12.67;89.14
63281;BME280;49406;51.044;3.766;2023-04-08T10:29:39;102676.76;;;12.63;90.46
63281;BME280;49406;51.044;3.766;2023-04-08T10:32:28;102677.77;;;12.62;90.60
63281;BME280;49406;51.044;3.766;2023-04-08T10:35:01;102675.29;;;12.68;90.93
63281;BME280;49406;51.044;3.766;2023-04-08T10:37:35;102681.39;;;12.73;91.30
63281;BME280;49406;51.044;3.766;2023-04-08T10:40:18;102675.03;;;12.83;90.30
63281;BME280;49406;51.044;3.766;2023-04-08T10:42:54;102673.86;;;12.78;89.36
63281;BME280;49406;51.044;3.766;2023-04-08T10:45:27;102676.79;;;12.83;89.11
63281;BME280;49406;51.044;3.766;2023-04-08T10:48:15;102676.04;;;12.94;88.63
63281;BME280;49406;51.044;3.766;2023-04-08T10:50:58;102679.77;;;13.08;88.39
63281;BME280;49406;51.044;3.766;2023-04-08T10:53:32;102682.84;;;13.18;86.79
63281;BME280;49406;51.044;3.766;2023-04-08T10:56:06;102684.04;;;13.29;86.82
63281;BME280;49406;51.044;3.766;2023-04-08T10:58:48;102680.60;;;13.39;86.38
63281;BME280;49406;51.044;3.766;2023-04-08T11:01:21;102677.67;;;13.47;85.68
63281;BME280;49406;51.044;3.766;2023-04-08T11:03:54;102675.92;;;13.55;86.28
63281;BME280;49406;51.044;3.766;2023-04-08T11:06:26;102673.61;;;13.75;86.59
63281;BME280;49406;51.044;3.766;2023-04-08T11:09:02;102675.73;;;13.97;85.18
63281;BME280;49406;51.044;3.766;2023-04-08T11:11:35;102673.23;;;14.04;84.16
63281;BME280;49406;51.044;3.766;2023-04-08T11:14:07;102673.27;;;14.05;84.28
63281;BME280;49406;51.044;3.766;2023-04-08T11:16:40;102679.15;;;13.94;83.57
63281;BME280;49406;51.044;3.766;2023-04-08T11:19:13;102676.05;;;13.88;84.59
63281;BME280;49406;51.044;3.766;2023-04-08T11:21:47;102676.73;;;13.80;84.27
63281;BME280;49406;51.044;3.766;2023-04-08T11:24:20;102672.91;;;13.68;84.82
63281;BME280;49406;51.044;3.766;2023-04-08T11:26:53;102672.42;;;13.70;85.13
63281;BME280;49406;51.044;3.766;2023-04-08T11:29:26;102671.27;;;13.65;84.59
63281;BME280;49406;51.044;3.766;2023-04-08T11:32:00;102672.82;;;13.64;85.24
63281;BME280;49406;51.044;3.766;2023-04-08T11:34:33;102667.48;;;13.69;85.35
63281;BME280;49406;51.044;3.766;2023-04-08T11:37:10;102667.77;;;13.73;84.79
63281;BME280;49406;51.044;3.766;2023-04-08T11:39:43;102663.88;;;13.73;84.74
63281;BME280;49406;51.044;3.766;2023-04-08T11:42:27;102666.09;;;13.70;84.89
63281;BME280;49406;51.044;3.766;2023-04-08T11:45:00;102666.34;;;13.65;85.51
63281;BME280;49406;51.044;3.766;2023-04-08T11:47:33;102665.83;;;13.65;85.65
63281;BME280;49406;51.044;3.766;2023-04-08T11:50:07;102662.48;;;13.73;85.44
63281;BME280;49406;51.044;3.766;2023-04-08T11:52:45;102661.30;;;13.82;85.63
63281;BME280;49406;51.044;3.766;2023-04-08T11:55:24;102657.88;;;13.94;85.16
63281;BME280;49406;51.044;3.766;2023-04-08T11:58:01;102656.79;;;13.99;84.22
63281;BME280;49406;51.044;3.766;2023-04-08T12:00:35;102661.83;;;13.90;83.47
63281;BME280;49406;51.044;3.766;2023-04-08T12:03:09;102659.97;;;13.85;84.06
63281;BME280;49406;51.044;3.766;2023-04-08T12:05:42;102663.00;;;13.87;84.14
63281;BME280;49406;51.044;3.766;2023-04-08T12:08:14;102660.73;;;13.95;84.68
63281;BME280;49406;51.044;3.766;2023-04-08T12:10:47;102662.89;;;14.05;83.64
63281;BME280;49406;51.044;3.766;2023-04-08T12:13:19;102661.27;;;14.03;83.33
63281;BME280;49406;51.044;3.766;2023-04-08T12:15:52;102660.52;;;14.01;83.82
63281;BME280;49406;51.044;3.766;2023-04-08T12:18:24;102658.66;;;14.12;84.33
63281;BME280;49406;51.044;3.766;2023-04-08T12:20:56;102657.20;;;14.26;82.65
63281;BME280;49406;51.044;3.766;2023-04-08T12:23:29;102656.94;;;14.38;81.68
63281;BME280;49406;51.044;3.766;2023-04-08T12:26:01;102658.33;;;14.52;81.90
63281;BME280;49406;51.044;3.766;2023-04-08T12:28:34;102652.96;;;14.65;80.67
63281;BME280;49406;51.044;3.766;2023-04-08T12:31:07;102650.35;;;14.75;80.73
63281;BME280;49406;51.044;3.766;2023-04-08T12:33:39;102648.98;;;14.86;78.62
63281;BME280;49406;51.044;3.766;2023-04-08T12:36:12;102651.23;;;14.94;77.93
63281;BME280;49406;51.044;3.766;2023-04-08T12:38:44;102648.46;;;15.06;77.72
63281;BME280;49406;51.044;3.766;2023-04-08T12:41:16;102648.95;;;15.04;77.52
63281;BME280;49406;51.044;3.766;2023-04-08T12:43:49;102649.40;;;15.18;78.97
63281;BME280;49406;51.044;3.766;2023-04-08T12:46:21;102646.98;;;15.41;77.03
63281;BME280;49406;51.044;3.766;2023-04-08T12:48:54;102648.84;;;15.47;76.72
63281;BME280;49406;51.044;3.766;2023-04-08T12:51:26;102650.73;;;15.55;76.37
63281;BME280;49406;51.044;3.766;2023-04-08T12:54:00;102646.20;;;15.67;75.20
63281;BME280;49406;51.044;3.766;2023-04-08T12:56:34;102641.57;;;15.87;76.15
63281;BME280;49406;51.044;3.766;2023-04-08T12:59:06;102641.36;;;15.96;74.14
63281;BME280;49406;51.044;3.766;2023-04-08T13:01:39;102642.29;;;15.99;73.55
63281;BME280;49406;51.044;3.766;2023-04-08T13:04:11;102646.63;;;15.95;72.80
63281;BME280;49406;51.044;3.766;2023-04-08T13:06:44;102640.63;;;15.94;73.38
63281;BME280;49406;51.044;3.766;2023-04-08T13:09:16;102640.77;;;16.17;72.94
63281;BME280;49406;51.044;3.766;2023-04-08T13:11:49;102638.63;;;16.42;72.97
63281;BME280;49406;51.044;3.766;2023-04-08T13:14:22;102638.84;;;16.61;71.24
63281;BME280;49406;51.044;3.766;2023-04-08T13:16:54;102640.93;;;16.43;70.61
63281;BME280;49406;51.044;3.766;2023-04-08T13:19:26;102635.27;;;16.29;71.35
63281;BME280;49406;51.044;3.766;2023-04-08T13:21:59;102629.88;;;16.48;72.14
63281;BME280;49406;51.044;3.766;2023-04-08T13:24:31;102633.33;;;16.70;71.32